LSGC

Les Eplatures Airport

Airport
ICAO code
LSGC
IATA Code
ZHV
Summary
ICAO Region
EUR
ICAO Territory
Location

La Chaux-de-Fonds, Neuchatel

Serving
Les Eplatures
Elevation
3368 ft
Coordinates
47° 5' 2" N , 6° 47' 34" E
Metar
Observation
LSGC 110520Z AUTO 00000KT 9999 NCD 12/07 Q1021
Station
Les Eplatures
Date/Time
2022-08-11 05:20:00
Wind direction
Wind speed
00 kts
Lowest cloud amount
no clouds detected
Temperature
12°C
Dew point
7°C
Humidity
71%
QNH
1021 hPa
Weather condition
n/a

Les Eplatures Airport is a small international airport near La Chaux-de-Fonds, Switzerland.

Climatology

Humid continental climate (Köppen climate classification Dfb)

Runways

Designator Length Width Surface Rops
6/24 1130 27 ASP No/No

Airport map

Aerial View

SKYbrary Partners:

Safety knowledge contributed by: